Time;durP1;ratioP1;P1;durP2;ratioP2;P2;SDS_P1;SDS_P2;PMS_P1;PMS_P2;Temp;Humidity;BMP_temperature;BMP_pressure;BME280_temperature;BME280_humidity;BME280_pressure;Samples;Min_cycle;Max_cycle;Signal;HPM_P1;HPM_P2
2021/12/13 00:02:23;;;;;;;4.65;2.10;;;;;;;6.21;92.10;101763.88;4813461;29;20142;-68
2021/12/13 00:05:27;;;;;;;3.75;2.17;;;;;;;6.29;91.88;101757.69;4822358;29;20054;-68
2021/12/13 00:08:34;;;;;;;3.15;1.65;;;;;;;6.26;91.94;101752.53;4822454;29;20107;-68
2021/12/13 00:11:41;;;;;;;5.63;1.73;;;;;;;6.25;91.56;101748.25;4824075;29;20102;-68
2021/12/13 00:14:53;;;;;;;4.60;2.10;;;;;;;6.24;91.56;101754.28;4825510;29;20091;-68
2021/12/13 00:17:57;;;;;;;3.72;1.45;;;;;;;6.23;91.59;101749.13;4825553;29;20065;-68
2021/12/13 00:21:13;;;;;;;2.83;1.60;;;;;;;6.26;91.77;101749.09;4813746;29;20056;-68
2021/12/13 00:24:32;;;;;;;3.40;1.52;;;;;;;6.20;91.85;101747.44;4825390;29;20146;-68
2021/12/13 00:27:43;;;;;;;6.32;1.73;;;;;;;6.17;91.90;101742.28;4814306;29;20053;-68
2021/12/13 00:31:12;;;;;;;6.05;1.60;;;;;;;6.21;92.26;101743.09;4825254;29;20466;-68
2021/12/13 00:34:28;;;;;;;6.05;1.67;;;;;;;6.17;92.16;101746.63;4825148;29;20420;-68
2021/12/13 00:37:37;;;;;;;4.22;2.10;;;;;;;6.25;92.23;101745.63;4813598;29;20118;-68
2021/12/13 00:40:49;;;;;;;3.95;2.35;;;;;;;6.29;91.59;101749.91;4825112;29;20139;-68
2021/12/13 00:44:04;;;;;;;4.85;1.80;;;;;;;6.10;92.06;101751.06;4825224;29;20485;-68
2021/12/13 00:47:15;;;;;;;6.80;1.50;;;;;;;6.00;92.68;101749.47;4825068;29;20122;-68
2021/12/13 00:50:37;;;;;;;4.63;2.13;;;;;;;6.04;92.74;101746.78;4824984;29;20122;-68
2021/12/13 00:53:44;;;;;;;2.67;1.50;;;;;;;6.05;92.48;101743.31;4824827;29;20054;-68
2021/12/13 00:57:03;;;;;;;3.47;1.40;;;;;;;5.98;92.38;101744.28;4810277;29;20054;-68
2021/12/13 01:00:06;;;;;;;13.35;2.97;;;;;;;6.00;92.98;101749.47;4806607;29;20066;-68
2021/12/13 01:03:25;;;;;;;3.17;2.20;;;;;;;5.99;92.80;101755.53;4806519;29;20421;-68
2021/12/13 01:06:48;;;;;;;3.78;1.73;;;;;;;5.94;93.17;101754.75;4806633;29;20067;-68
2021/12/13 01:10:17;;;;;;;7.13;1.50;;;;;;;6.02;93.15;101758.06;4806640;29;20096;-68
2021/12/13 01:13:41;;;;;;;2.72;1.40;;;;;;;5.98;92.97;101756.41;4806547;29;20426;-68
2021/12/13 01:17:07;;;;;;;;;;;;;;;6.08;93.06;101765.78;4807037;29;20139;-68
2021/12/13 01:20:11;;;;;;;3.58;1.92;;;;;;;5.99;93.54;101760.72;4815764;29;19975;-68
2021/12/13 01:23:27;;;;;;;3.53;1.75;;;;;;;6.12;93.10;101764.84;4823921;29;20081;-68
2021/12/13 01:26:39;;;;;;;6.78;2.60;;;;;;;6.14;92.78;101770.03;4824790;29;20056;-68
2021/12/13 01:29:50;;;;;;;4.45;1.83;;;;;;;6.09;92.63;101777.03;4824389;29;20053;-68
2021/12/13 01:32:57;;;;;;;6.72;1.88;;;;;;;6.10;92.79;101774.41;4824193;29;20524;-68
2021/12/13 01:36:06;;;;;;;2.85;1.20;;;;;;;6.05;92.86;101784.00;4824243;29;20103;-68
2021/12/13 01:39:14;;;;;;;3.17;1.60;;;;;;;5.94;93.99;101785.91;4824294;29;20578;-68
2021/12/13 01:42:27;;;;;;;3.35;1.80;;;;;;;6.05;93.68;101791.78;4817698;29;20054;-68
2021/12/13 01:45:35;;;;;;;4.33;1.60;;;;;;;5.98;94.20;101792.75;4805965;29;20054;-68
2021/12/13 01:48:41;;;;;;;5.30;1.60;;;;;;;6.04;93.13;101790.09;4807914;29;20049;-68
2021/12/13 01:51:45;;;;;;;4.57;1.73;;;;;;;6.07;93.08;101792.63;4824182;29;20048;-68
2021/12/13 01:54:49;;;;;;;6.63;2.05;;;;;;;6.10;92.87;101791.75;4824246;29;20053;-68
2021/12/13 01:58:35;;;;;;;4.70;1.90;;;;;;;5.94;93.73;101785.91;4823945;29;20053;-68
2021/12/13 02:01:38;;;;;;;8.32;1.98;;;;;;;5.86;94.42;101791.13;4812361;29;20103;-68
2021/12/13 02:04:45;;;;;;;6.00;1.90;;;;;;;5.98;93.66;101792.75;4823945;29;20072;-68
2021/12/13 02:08:07;;;;;;;6.55;1.90;;;;;;;6.08;93.28;101794.34;4823770;29;20102;-68
2021/12/13 02:11:10;;;;;;;3.92;2.00;;;;;;;6.14;93.23;101788.22;4822772;29;20048;-68
2021/12/13 02:14:16;;;;;;;;;;;;;;;6.23;92.69;101794.16;4824155;29;20095;-68
2021/12/13 02:17:22;;;;;;;8.18;2.38;;;;;;;6.31;92.58;101795.78;4823679;29;20011;-68
2021/12/13 02:20:37;;;;;;;3.88;2.03;;;;;;;6.21;92.79;101790.69;4823532;29;20524;-68
2021/12/13 02:23:46;;;;;;;8.02;2.78;;;;;;;6.25;92.36;101787.19;4823367;29;20388;-68
2021/12/13 02:26:50;;;;;;;5.60;2.20;;;;;;;6.03;92.69;101786.63;4823561;29;20121;-68
2021/12/13 02:29:56;;;;;;;6.43;2.17;;;;;;;6.12;93.00;101790.81;4823512;29;20050;-68
2021/12/13 02:33:02;;;;;;;7.43;2.20;;;;;;;6.12;92.70;101787.38;4823676;29;20121;-68
2021/12/13 02:36:15;;;;;;;4.82;1.90;;;;;;;6.12;92.40;101785.63;4823428;29;20099;-68
2021/12/13 02:39:30;;;;;;;6.45;1.73;;;;;;;6.20;91.94;101789.00;4823590;29;20057;-68
2021/12/13 02:42:34;;;;;;;3.72;1.80;;;;;;;6.25;91.62;101789.78;4805075;29;20578;-68
2021/12/13 02:45:43;;;;;;;5.05;1.92;;;;;;;6.24;91.87;101798.44;4804733;29;20065;-68
2021/12/13 02:48:51;;;;;;;8.88;2.60;;;;;;;6.22;91.41;101791.56;4805244;29;20045;-68
2021/12/13 02:51:59;;;;;;;7.25;3.55;;;;;;;6.12;91.74;101795.16;4793801;29;20137;-68
2021/12/13 02:55:10;;;;;;;6.15;2.60;;;;;;;6.11;91.87;101789.13;4804818;29;20483;-68
2021/12/13 02:58:16;;;;;;;9.38;2.38;;;;;;;6.22;91.82;101788.97;4805036;29;20432;-68
2021/12/13 03:01:41;;;;;;;7.30;2.10;;;;;;;6.25;91.41;101787.19;4804923;29;20049;-68
2021/12/13 03:04:46;;;;;;;8.80;2.58;;;;;;;6.25;91.26;101782.00;4804861;29;20053;-68
2021/12/13 03:07:53;;;;;;;6.60;2.40;;;;;;;6.27;91.52;101781.97;4804813;29;20050;-68
2021/12/13 03:11:01;;;;;;;5.93;2.63;;;;;;;6.26;91.19;101783.72;4814829;29;20065;-68
2021/12/13 03:14:30;;;;;;;5.47;2.60;;;;;;;6.19;91.45;101787.28;4822838;29;20522;-68
2021/12/13 03:17:41;;;;;;;7.80;5.22;;;;;;;6.26;91.08;101794.09;4823162;29;20107;-68
2021/12/13 03:21:02;;;;;;;5.32;3.58;;;;;;;6.24;91.50;101792.41;4822937;29;20547;-68
2021/12/13 03:24:36;;;;;;;6.82;3.55;;;;;;;6.14;91.66;101789.06;4822912;29;20098;-68
2021/12/13 03:28:06;;;;;;;8.35;4.30;;;;;;;6.07;91.68;101782.25;4822702;29;20539;-68
2021/12/13 03:31:14;;;;;;;6.05;2.58;;;;;;;5.97;91.82;101785.84;4822742;29;20112;-68
2021/12/13 03:34:25;;;;;;;7.90;4.45;;;;;;;5.92;91.47;101783.28;4811541;29;20053;-68
2021/12/13 03:37:29;;;;;;;7.35;3.70;;;;;;;5.86;91.81;101785.09;4822871;29;20470;-68
2021/12/13 03:40:32;;;;;;;;;;;;;;;5.86;91.54;101787.69;4814025;29;20058;-68
2021/12/13 03:43:44;;;;;;;11.95;7.00;;;;;;;5.71;91.96;101778.34;4804305;29;19924;-68
2021/12/13 03:46:52;;;;;;;10.52;5.88;;;;;;;5.63;91.48;101787.97;4807855;29;20057;-68
2021/12/13 03:49:59;;;;;;;7.03;3.75;;;;;;;5.64;91.62;101793.13;4807901;29;20135;-68
2021/12/13 03:53:09;;;;;;;11.20;3.88;;;;;;;5.55;91.33;101791.50;4808241;29;20126;-68
2021/12/13 03:56:15;;;;;;;6.05;3.40;;;;;;;5.55;90.95;101788.91;4808114;29;20118;-68
2021/12/13 03:59:22;;;;;;;6.47;3.88;;;;;;;5.53;90.17;101797.59;4807518;29;20081;-68
2021/12/13 04:02:35;;;;;;;9.40;2.50;;;;;;;5.52;89.99;101799.34;4808203;29;20058;-68
2021/12/13 04:05:39;;;;;;;4.88;3.05;;;;;;;5.47;89.95;101798.50;4807738;29;20054;-68
2021/12/13 04:08:54;;;;;;;9.85;4.40;;;;;;;5.32;89.96;101796.91;4807656;29;20053;-68
2021/12/13 04:12:00;;;;;;;7.47;5.22;;;;;;;5.36;89.92;101801.22;4807398;29;20418;-68
2021/12/13 04:15:12;;;;;;;10.70;3.42;;;;;;;5.22;90.09;101797.03;4807543;29;20417;-68
2021/12/13 04:18:30;;;;;;;6.75;2.83;;;;;;;5.31;90.00;101795.22;4807566;29;20471;-68
2021/12/13 04:21:42;;;;;;;7.20;3.47;;;;;;;5.32;90.24;101799.50;4807525;29;20094;-68
2021/12/13 04:24:51;;;;;;;9.55;4.10;;;;;;;5.20;90.99;101809.16;4807459;29;20057;-68
2021/12/13 04:27:57;;;;;;;9.88;3.30;;;;;;;5.24;90.12;101808.28;4807359;29;20057;-68
2021/12/13 04:31:07;;;;;;;6.05;3.03;;;;;;;5.23;89.83;101812.59;4807324;29;20142;-68
2021/12/13 04:34:11;;;;;;;11.70;3.50;;;;;;;5.18;90.04;101819.56;4807265;29;20117;-68
2021/12/13 04:37:19;;;;;;;4.90;2.60;;;;;;;5.11;90.30;101820.50;4807319;29;20138;-68
2021/12/13 04:40:32;;;;;;;6.75;2.92;;;;;;;5.16;89.85;101813.50;4816140;29;20160;-68
2021/12/13 04:43:36;;;;;;;7.47;2.83;;;;;;;5.20;89.99;101820.41;4825345;29;20118;-68
2021/12/13 04:46:42;;;;;;;6.30;3.03;;;;;;;5.20;89.34;101823.00;4823553;29;20057;-68
2021/12/13 04:49:51;;;;;;;6.45;2.85;;;;;;;5.21;89.55;101829.91;4813064;29;20045;-68
2021/12/13 04:52:57;;;;;;;4.68;2.67;;;;;;;5.14;88.97;101843.78;4825009;29;20106;-68
2021/12/13 04:56:07;;;;;;;5.20;2.67;;;;;;;5.17;89.10;101841.19;4814930;29;20101;-67
2021/12/13 04:59:13;;;;;;;5.22;2.70;;;;;;;5.01;90.62;101843.03;4806250;29;20192;-68
2021/12/13 05:02:17;;;;;;;8.77;2.42;;;;;;;5.18;90.36;101845.47;4806848;29;20077;-68
2021/12/13 05:05:20;;;;;;;6.78;4.03;;;;;;;5.24;89.93;101850.63;4815558;29;20110;-68
2021/12/13 05:08:27;;;;;;;;;;;;;;;5.31;89.58;101856.59;4820591;29;20107;-68
2021/12/13 05:11:39;;;;;;;7.03;3.70;;;;;;;5.18;90.25;101858.44;4808568;29;19927;-68
2021/12/13 05:14:41;;;;;;;5.60;3.13;;;;;;;5.16;91.15;101855.00;4820455;29;20252;-68
2021/12/13 05:17:45;;;;;;;;;;;;;;;5.21;90.97;101860.16;4816543;29;20129;-68
2021/12/13 05:21:00;;;;;;;4.97;2.72;;;;;;;5.20;91.12;101861.91;4821690;29;20209;-68
2021/12/13 05:24:19;;;;;;;5.68;3.10;;;;;;;5.14;91.15;101864.53;4801152;29;20480;-69
2021/12/13 05:27:28;;;;;;;4.78;2.70;;;;;;;5.15;91.61;101866.25;4801812;29;20111;-68
2021/12/13 05:30:34;;;;;;;10.77;3.20;;;;;;;5.25;91.31;101869.63;4809284;29;20054;-68
2021/12/13 05:33:41;;;;;;;6.80;3.28;;;;;;;5.34;90.57;101862.63;4819568;29;20049;-68
2021/12/13 05:36:55;;;;;;;7.50;3.05;;;;;;;5.48;90.08;101859.03;4817773;29;20199;-68
2021/12/13 05:40:07;;;;;;;12.98;2.78;;;;;;;5.40;89.97;101860.84;4801304;29;20054;-68
2021/12/13 05:43:42;;;;;;;5.38;3.10;;;;;;;5.44;89.85;101857.34;4801775;29;20069;-69
2021/12/13 05:46:49;;;;;;;4.78;2.65;;;;;;;5.42;89.86;101859.94;4801170;29;20103;-68
2021/12/13 05:49:53;;;;;;;6.38;3.05;;;;;;;5.43;90.02;101858.22;4801086;29;20570;-68
2021/12/13 05:53:03;;;;;;;9.35;4.78;;;;;;;5.36;90.04;101868.66;4800846;29;20066;-70
2021/12/13 05:56:16;;;;;;;9.73;4.30;;;;;;;4.97;91.71;101871.56;4801058;29;20058;-69
2021/12/13 05:59:31;;;;;;;11.60;4.10;;;;;;;5.17;91.74;101868.81;4819263;29;20061;-68
2021/12/13 06:02:54;;;;;;;14.13;6.63;;;;;;;5.28;91.09;101870.44;4819892;29;20125;-68
2021/12/13 06:06:06;;;;;;;6.40;4.30;;;;;;;5.41;90.62;101867.75;4820153;29;20520;-68
2021/12/13 06:09:09;;;;;;;7.85;4.13;;;;;;;5.47;90.35;101862.50;4819517;29;20091;-68
2021/12/13 06:12:23;;;;;;;7.40;4.53;;;;;;;5.50;90.17;101859.88;4819857;29;20107;-69
2021/12/13 06:15:27;;;;;;;10.40;7.60;;;;;;;5.48;89.89;101866.81;4801256;29;20053;-68
2021/12/13 06:18:41;;;;;;;12.27;7.22;;;;;;;5.50;89.70;101862.47;4801926;29;20113;-68
2021/12/13 06:22:03;;;;;;;8.43;5.53;;;;;;;5.44;89.91;101873.75;4801240;29;20127;-68
2021/12/13 06:25:09;;;;;;;7.72;4.90;;;;;;;5.47;89.68;101872.88;4801109;29;20476;-68
2021/12/13 06:28:23;;;;;;;14.82;5.70;;;;;;;5.54;89.79;101867.59;4811849;29;20107;-69
2021/12/13 06:31:42;;;;;;;11.23;7.88;;;;;;;5.50;89.66;101867.66;4819086;29;20045;-68
2021/12/13 06:34:45;;;;;;;13.52;8.40;;;;;;;5.39;89.94;101874.69;4801140;29;20097;-68
2021/12/13 06:37:48;;;;;;;10.55;5.40;;;;;;;5.32;90.04;101876.47;4800285;29;20142;-69
2021/12/13 06:40:51;;;;;;;6.80;4.40;;;;;;;5.38;89.92;101878.16;4800274;29;20133;-69
2021/12/13 06:43:57;;;;;;;;;;;;;;;5.38;90.08;101889.38;4801024;29;20103;-68
2021/12/13 06:47:03;;;;;;;11.13;6.30;;;;;;;5.36;89.66;101886.81;4800823;29;19923;-68
2021/12/13 06:50:06;;;;;;;13.32;8.40;;;;;;;5.43;89.32;101881.56;4801301;29;20095;-68
2021/12/13 06:53:17;;;;;;;8.65;6.40;;;;;;;5.41;89.41;101888.50;4801063;29;20089;-69
2021/12/13 06:56:25;;;;;;;12.32;6.35;;;;;;;5.30;89.33;101880.81;4817209;29;20068;-68
2021/12/13 06:59:31;;;;;;;8.68;6.18;;;;;;;5.29;88.88;101879.09;4836859;29;20061;-68
2021/12/13 07:02:41;;;;;;;6.43;4.43;;;;;;;5.37;89.15;101885.09;4824558;29;20309;-68
2021/12/13 07:05:48;;;;;;;8.10;4.85;;;;;;;5.39;89.21;101891.09;4819015;29;20072;-68
2021/12/13 07:09:14;;;;;;;9.50;5.90;;;;;;;5.45;88.74;101890.19;4819350;29;20618;-68
2021/12/13 07:12:18;;;;;;;9.77;6.53;;;;;;;5.45;88.73;101896.22;4836245;29;20052;-68
2021/12/13 07:15:45;;;;;;;11.65;6.72;;;;;;;5.49;88.84;101905.72;4837050;29;20602;-68
2021/12/13 07:19:00;;;;;;;7.78;4.60;;;;;;;5.39;88.98;101900.63;4836652;29;20065;-68
2021/12/13 07:22:08;;;;;;;10.88;4.65;;;;;;;5.50;89.02;101893.63;4841061;29;20052;-68
2021/12/13 07:25:15;;;;;;;11.10;4.47;;;;;;;5.55;88.58;101897.00;4840159;29;20064;-68
2021/12/13 07:28:36;;;;;;;9.93;7.07;;;;;;;5.57;88.46;101900.47;4839552;29;20091;-68
2021/12/13 07:31:42;;;;;;;19.55;10.02;;;;;;;5.59;88.22;101909.09;4831341;29;20131;-68
2021/12/13 07:35:22;;;;;;;13.32;7.43;;;;;;;5.58;88.81;101910.84;4804457;29;20471;-69
2021/12/13 07:38:26;;;;;;;25.08;16.88;;;;;;;5.53;89.10;101909.16;4806148;29;20049;-68
2021/12/13 07:41:54;;;;;;;10.13;5.45;;;;;;;5.46;89.06;101912.69;4821456;29;20118;-67
2021/12/13 07:44:59;;;;;;;8.15;4.20;;;;;;;5.45;89.69;101916.97;4821398;29;20194;-68
2021/12/13 07:48:19;;;;;;;13.32;5.43;;;;;;;5.51;89.23;101916.06;4821284;29;20420;-70
2021/12/13 07:51:40;;;;;;;38.42;25.77;;;;;;;5.54;89.02;101916.06;4821592;29;20045;-68
2021/12/13 07:54:45;;;;;;;29.38;17.90;;;;;;;5.59;89.09;101909.09;4822948;29;20138;-68
2021/12/13 07:57:50;;;;;;;26.85;19.23;;;;;;;5.41;89.90;101920.50;4821169;29;20053;-68
2021/12/13 08:00:53;;;;;;;12.27;7.00;;;;;;;5.37;90.11;101921.41;4822844;29;20073;-68
2021/12/13 08:04:17;;;;;;;;;;;;;;;5.34;90.35;101926.59;4807818;29;20405;-68
2021/12/13 08:07:27;;;;;;;14.68;9.48;;;;;;;5.29;90.78;101925.78;4807446;29;19924;-68
2021/12/13 08:10:38;;;;;;;7.55;3.90;;;;;;;5.34;90.67;101929.19;4807621;29;20135;-68
2021/12/13 08:13:55;;;;;;;6.32;2.92;;;;;;;5.29;90.97;101936.16;4825463;29;20115;-68
2021/12/13 08:17:17;;;;;;;6.03;3.40;;;;;;;5.34;91.08;101937.84;4825261;29;20057;-68
2021/12/13 08:20:26;;;;;;;6.22;4.43;;;;;;;5.43;91.01;101933.47;4825246;29;20083;-68
2021/12/13 08:23:35;;;;;;;8.77;2.30;;;;;;;5.43;90.98;101934.31;4824969;29;20524;-68
2021/12/13 08:26:42;;;;;;;9.18;3.60;;;;;;;5.38;91.24;101941.25;4825054;29;20110;-68
2021/12/13 08:29:46;;;;;;;10.40;4.65;;;;;;;5.41;91.49;101940.38;4824934;29;20075;-68
2021/12/13 08:33:10;;;;;;;9.82;5.93;;;;;;;5.65;90.86;101942.78;4817691;29;20216;-68
2021/12/13 08:36:17;;;;;;;;;;;;;;;5.54;91.40;101952.38;4796378;29;20119;-68
2021/12/13 08:39:30;;;;;;;12.02;7.22;;;;;;;5.73;90.76;101955.66;4806692;29;19924;-68
2021/12/13 08:42:36;;;;;;;;;;;;;;;5.74;90.79;101949.59;4807332;29;20133;-68
2021/12/13 08:45:41;;;;;;;9.10;5.47;;;;;;;5.79;90.39;101958.22;4806681;29;20016;-68
2021/12/13 08:48:51;;;;;;;10.88;6.63;;;;;;;5.85;89.65;101954.69;4828711;29;20057;-68
2021/12/13 08:52:13;;;;;;;18.13;13.65;;;;;;;5.92;89.84;101958.94;4843114;29;20081;-68
2021/12/13 08:55:17;;;;;;;20.55;15.05;;;;;;;5.92;90.09;101958.94;4843472;29;20057;-68
2021/12/13 08:58:21;;;;;;;15.55;12.20;;;;;;;6.02;89.81;101961.47;4842853;29;20057;-68
2021/12/13 09:01:40;;;;;;;26.17;17.65;;;;;;;6.16;90.19;101960.44;4832866;29;20417;-68
2021/12/13 09:05:16;;;;;;;14.73;9.23;;;;;;;6.17;90.32;101962.19;4822303;29;20042;-68
2021/12/13 09:08:28;;;;;;;13.57;8.07;;;;;;;6.09;90.37;101962.25;4820360;29;20432;-68
2021/12/13 09:11:59;;;;;;;13.02;7.97;;;;;;;6.20;90.57;101968.19;4819991;29;20432;-68
2021/12/13 09:15:34;;;;;;;20.05;12.48;;;;;;;6.20;90.32;101969.94;4829328;29;20056;-69
2021/12/13 09:18:38;;;;;;;15.55;12.63;;;;;;;6.20;90.33;101970.81;4837861;29;20048;-68
2021/12/13 09:22:09;;;;;;;13.23;9.05;;;;;;;6.24;90.88;101972.47;4837456;29;20105;-68
2021/12/13 09:25:15;;;;;;;8.18;4.90;;;;;;;6.26;91.03;101970.72;4838740;29;20056;-68
2021/12/13 09:28:26;;;;;;;6.07;3.50;;;;;;;6.28;90.98;101981.09;4802491;29;20429;-68
2021/12/13 09:31:36;;;;;;;9.45;5.10;;;;;;;6.43;90.13;101975.72;4813396;29;20050;-68
2021/12/13 09:34:39;;;;;;;9.75;6.05;;;;;;;6.42;90.40;101976.63;4820690;29;20046;-68
2021/12/13 09:37:43;;;;;;;6.68;4.38;;;;;;;6.43;90.63;101972.28;4820286;29;20133;-68
2021/12/13 09:40:53;;;;;;;6.70;3.80;;;;;;;6.58;90.42;101966.91;4824323;29;20568;-68
2021/12/13 09:44:16;;;;;;;8.02;4.07;;;;;;;6.58;90.65;101963.44;4837169;29;20048;-68
2021/12/13 09:47:23;;;;;;;8.98;4.53;;;;;;;6.64;90.22;101966.81;4837893;29;20428;-68
2021/12/13 09:50:31;;;;;;;8.25;4.15;;;;;;;6.67;90.95;101977.19;4838556;29;20049;-68
2021/12/13 09:53:37;;;;;;;4.57;2.53;;;;;;;6.68;90.66;101973.69;4838239;29;20049;-68
2021/12/13 09:56:49;;;;;;;4.40;2.22;;;;;;;6.71;90.39;101968.44;4837919;29;20057;-68
2021/12/13 09:59:54;;;;;;;3.53;2.05;;;;;;;6.78;90.12;101965.78;4836310;29;20145;-68
2021/12/13 10:03:04;;;;;;;3.17;1.80;;;;;;;6.79;90.05;101963.13;4802062;29;20057;-68
2021/12/13 10:06:08;;;;;;;2.92;1.73;;;;;;;6.88;89.87;101960.41;4802023;29;20118;-68
2021/12/13 10:09:46;;;;;;;6.65;6.00;;;;;;;6.79;89.95;101951.88;4804752;29;20054;-68
2021/12/13 10:12:55;;;;;;;14.82;13.30;;;;;;;6.85;89.39;101947.44;4823679;29;20249;-68
2021/12/13 10:16:10;;;;;;;5.80;4.15;;;;;;;6.94;89.11;101943.88;4822507;29;20449;-69
2021/12/13 10:19:19;;;;;;;3.13;2.08;;;;;;;6.96;89.19;101947.31;4823540;29;20541;-69
2021/12/13 10:22:28;;;;;;;9.50;7.28;;;;;;;6.64;91.26;101942.56;4822802;29;20058;-68
2021/12/13 10:25:37;;;;;;;11.02;6.38;;;;;;;6.63;91.75;101939.09;4823689;29;20045;-69
2021/12/13 10:28:55;;;;;;;12.57;5.80;;;;;;;6.56;92.59;101942.66;4823479;29;20057;-68
2021/12/13 10:32:01;;;;;;;8.40;4.43;;;;;;;6.79;91.62;101941.47;4823197;29;20080;-68
2021/12/13 10:35:14;;;;;;;7.55;5.15;;;;;;;7.00;91.11;101938.59;4823399;29;20631;-68
2021/12/13 10:38:26;;;;;;;10.57;4.30;;;;;;;7.22;90.33;101937.38;4823526;29;20102;-69
2021/12/13 10:41:40;;;;;;;5.55;3.97;;;;;;;7.29;90.12;101935.53;4823441;29;20608;-68
2021/12/13 10:44:44;;;;;;;10.00;4.50;;;;;;;7.40;89.90;101932.75;4823490;29;20129;-68
2021/12/13 10:47:51;;;;;;;11.18;4.00;;;;;;;7.44;89.37;101937.88;4823311;29;20085;-68
2021/12/13 10:51:02;;;;;;;7.10;3.95;;;;;;;7.45;89.55;101938.75;4823485;29;20053;-68
2021/12/13 10:54:12;;;;;;;5.18;4.05;;;;;;;7.43;89.70;101937.91;4820101;29;20520;-68
2021/12/13 10:57:37;;;;;;;6.60;4.10;;;;;;;7.40;89.68;101938.84;4818350;29;20062;-70
2021/12/13 11:00:47;;;;;;;8.68;7.22;;;;;;;7.40;91.06;101933.63;4818737;29;20110;-69
2021/12/13 11:03:53;;;;;;;7.18;5.72;;;;;;;7.55;90.60;101931.63;4819236;29;20053;-68
2021/12/13 11:06:56;;;;;;;7.05;4.80;;;;;;;7.38;91.11;101926.72;4807033;29;20178;-68
2021/12/13 11:10:01;;;;;;;7.05;4.53;;;;;;;7.39;91.77;101923.22;4818538;29;20110;-68
2021/12/13 11:13:05;;;;;;;7.45;4.25;;;;;;;7.68;90.45;101915.75;4818634;29;20041;-69
2021/12/13 11:16:10;;;;;;;;;;;;;;;7.80;89.94;101913.84;4818951;29;20053;-68
2021/12/13 11:19:18;;;;;;;4.30;2.28;;;;;;;7.91;89.31;101911.88;4800641;29;19977;-68
2021/12/13 11:22:29;;;;;;;4.72;2.90;;;;;;;7.81;89.78;101916.41;4825384;29;20412;-69
2021/12/13 11:25:53;;;;;;;6.72;5.10;;;;;;;7.76;90.63;101920.00;4836739;29;20412;-68
2021/12/13 11:28:58;;;;;;;10.73;9.23;;;;;;;7.90;90.27;101905.81;4836461;29;20053;-68
2021/12/13 11:32:37;;;;;;;17.58;13.23;;;;;;;7.86;89.82;101911.13;4788987;29;20054;-69
2021/12/13 11:36:10;;;;;;;15.18;11.38;;;;;;;8.13;89.08;101907.09;4810350;29;20425;-68
2021/12/13 11:39:20;;;;;;;11.65;8.77;;;;;;;8.13;87.92;101905.34;4824962;29;20049;-69
2021/12/13 11:42:31;;;;;;;11.55;7.85;;;;;;;8.25;88.13;101900.78;4834314;29;20523;-68
2021/12/13 11:46:17;;;;;;;6.95;5.63;;;;;;;8.44;87.52;101903.91;4817403;29;20076;-69
2021/12/13 11:49:51;;;;;;;5.95;4.20;;;;;;;8.49;87.39;101905.53;4818755;29;20556;-68
2021/12/13 11:53:04;;;;;;;7.30;4.15;;;;;;;8.45;87.72;101905.63;4817992;29;20539;-68
2021/12/13 11:56:22;;;;;;;7.33;3.63;;;;;;;8.52;87.13;101895.03;4818185;29;20195;-68
2021/12/13 11:59:40;;;;;;;7.78;4.10;;;;;;;8.55;86.83;101905.41;4813284;29;20327;-68
2021/12/13 12:03:34;;;;;;;4.60;3.45;;;;;;;8.49;86.88;101900.31;4799838;29;20098;-68
2021/12/13 12:06:55;;;;;;;5.88;4.65;;;;;;;8.40;87.24;101897.06;4800617;29;20050;-68
2021/12/13 12:10:20;;;;;;;7.18;5.32;;;;;;;8.48;87.12;101895.97;4820913;29;20100;-68
2021/12/13 12:14:01;;;;;;;5.80;3.08;;;;;;;8.39;88.44;101890.97;4826116;29;20053;-70
2021/12/13 12:17:06;;;;;;;4.65;3.65;;;;;;;8.50;87.79;101886.38;4837712;29;20235;-67
2021/12/13 12:20:16;;;;;;;4.38;2.10;;;;;;;8.35;88.96;101889.28;4823060;29;20126;-68
2021/12/13 12:23:29;;;;;;;5.00;1.70;;;;;;;8.30;89.22;101878.97;4821817;29;20054;-68
2021/12/13 12:26:34;;;;;;;5.18;3.20;;;;;;;8.36;89.17;101885.81;4821259;29;20154;-68
2021/12/13 12:29:51;;;;;;;6.25;2.90;;;;;;;8.39;89.61;101883.13;4811934;29;20073;-68
2021/12/13 12:32:58;;;;;;;4.18;2.88;;;;;;;8.40;89.65;101887.47;4821325;29;20061;-68
2021/12/13 12:36:08;;;;;;;5.95;3.08;;;;;;;8.50;88.35;101881.19;4821266;29;20049;-68
2021/12/13 12:39:35;;;;;;;3.40;1.55;;;;;;;8.50;88.76;101888.16;4820963;29;20548;-68
2021/12/13 12:42:40;;;;;;;3.05;1.70;;;;;;;8.57;87.66;101885.34;4820830;29;20069;-68
2021/12/13 12:45:53;;;;;;;9.68;4.47;;;;;;;8.61;87.33;101886.13;4821242;29;20127;-68
2021/12/13 12:48:58;;;;;;;33.58;15.70;;;;;;;8.55;88.18;101887.16;4820963;29;20065;-68
2021/12/13 12:52:05;;;;;;;55.85;28.48;;;;;;;8.69;87.36;101885.97;4821273;29;20054;-68
2021/12/13 12:55:13;;;;;;;32.97;16.77;;;;;;;8.73;87.01;101890.22;4820618;29;20432;-68
2021/12/13 12:58:21;;;;;;;14.93;8.30;;;;;;;8.71;85.30;101889.41;4821449;29;20134;-68
2021/12/13 13:01:35;;;;;;;15.20;9.18;;;;;;;8.84;85.42;101883.88;4820847;29;20413;-68
2021/12/13 13:04:42;;;;;;;12.40;6.60;;;;;;;8.85;86.25;101879.53;4824463;29;20578;-68
2021/12/13 13:07:45;;;;;;;8.65;4.78;;;;;;;8.82;84.54;101883.06;4821987;29;20257;-68
2021/12/13 13:10:53;;;;;;;9.88;5.20;;;;;;;8.81;80.16;101875.28;4818614;29;20134;-68
2021/12/13 13:14:03;;;;;;;5.65;2.88;;;;;;;8.85;80.84;101876.91;4819389;29;20085;-70
2021/12/13 13:17:08;;;;;;;5.93;3.17;;;;;;;8.76;83.18;101875.38;4819715;29;20045;-70
2021/12/13 13:20:17;;;;;;;5.65;3.35;;;;;;;8.81;83.25;101872.66;4801426;29;20081;-70
2021/12/13 13:23:25;;;;;;;3.88;2.53;;;;;;;8.73;85.07;101875.44;4816335;29;20053;-70
2021/12/13 13:26:31;;;;;;;4.35;2.72;;;;;;;8.78;85.05;101877.97;4820089;29;20131;-70
2021/12/13 13:29:35;;;;;;;7.22;2.95;;;;;;;8.80;85.52;101870.94;4820461;29;20118;-70
2021/12/13 13:32:39;;;;;;;4.75;2.85;;;;;;;8.75;86.55;101875.41;4820592;29;20108;-69
2021/12/13 13:35:42;;;;;;;5.07;2.70;;;;;;;8.74;86.71;101881.50;4835350;29;20272;-69
2021/12/13 13:38:45;;;;;;;8.20;2.50;;;;;;;8.71;87.56;101884.19;4827813;29;20040;-69
2021/12/13 13:42:05;;;;;;;;;;;;;;;8.71;87.41;101876.34;4819922;29;20577;-69
2021/12/13 13:45:17;;;;;;;11.60;6.35;;;;;;;8.69;87.85;101871.19;4820583;29;20341;-69
2021/12/13 13:48:31;;;;;;;7.07;3.40;;;;;;;8.74;87.78;101871.06;4818119;29;20123;-68
2021/12/13 13:51:36;;;;;;;8.73;3.97;;;;;;;8.66;88.76;101871.25;4819744;29;20461;-68
2021/12/13 13:54:40;;;;;;;7.82;3.22;;;;;;;8.70;88.58;101870.28;4819948;29;20049;-68
2021/12/13 13:57:50;;;;;;;4.45;1.92;;;;;;;8.66;89.79;101870.41;4815905;29;20058;-68
2021/12/13 14:01:02;;;;;;;9.13;2.13;;;;;;;8.68;89.41;101868.59;4818910;29;20421;-68
2021/12/13 14:04:17;;;;;;;4.78;2.20;;;;;;;8.70;88.89;101878.13;4821175;29;20089;-68
2021/12/13 14:07:27;;;;;;;5.18;2.35;;;;;;;8.70;88.93;101885.09;4809148;29;20063;-69
2021/12/13 14:10:33;;;;;;;7.65;1.50;;;;;;;8.56;90.00;101878.44;4818734;29;20107;-68
2021/12/13 14:13:39;;;;;;;4.35;1.63;;;;;;;8.59;89.83;101883.59;4818539;29;20052;-69
2021/12/13 14:16:50;;;;;;;7.60;3.92;;;;;;;8.45;90.40;101879.56;4806859;29;20069;-69
2021/12/13 14:19:54;;;;;;;4.95;2.70;;;;;;;8.49;90.01;101879.47;4788524;29;20096;-69
2021/12/13 14:23:14;;;;;;;4.82;3.05;;;;;;;8.49;90.62;101887.28;4799186;29;20061;-69
2021/12/13 14:26:19;;;;;;;8.95;4.05;;;;;;;8.48;90.41;101889.91;4800505;29;20046;-68
2021/12/13 14:29:23;;;;;;;5.78;3.33;;;;;;;8.56;89.83;101883.66;4799772;29;20058;-68
2021/12/13 14:32:26;;;;;;;3.92;2.58;;;;;;;8.53;90.00;101888.94;4799399;29;20050;-69
2021/12/13 14:35:33;;;;;;;3.90;2.08;;;;;;;8.46;90.43;101882.16;4814883;29;20061;-68
2021/12/13 14:38:49;;;;;;;6.93;2.33;;;;;;;8.40;90.53;101884.03;4824687;29;20053;-69
2021/12/13 14:41:59;;;;;;;8.15;3.35;;;;;;;8.41;90.88;101893.56;4813952;29;20060;-68
2021/12/13 14:45:10;;;;;;;5.60;2.10;;;;;;;8.38;90.75;101889.25;4835947;29;20169;-68
2021/12/13 14:48:18;;;;;;;5.30;2.03;;;;;;;8.38;90.69;101890.09;4822004;29;20057;-68
2021/12/13 14:51:21;;;;;;;9.20;2.42;;;;;;;8.40;90.36;101887.47;4798955;29;20421;-68
2021/12/13 14:54:28;;;;;;;5.03;2.78;;;;;;;8.32;90.39;101885.00;4799409;29;20119;-68
2021/12/13 14:57:33;;;;;;;6.47;3.88;;;;;;;8.18;91.33;101894.00;4798759;29;20582;-68
2021/12/13 15:00:45;;;;;;;7.65;3.22;;;;;;;8.26;90.94;101892.09;4762261;29;1127099;-68
2021/12/13 15:03:53;;;;;;;8.55;4.68;;;;;;;8.29;90.62;101884.19;4805264;29;20061;-68